Time;durP1;ratioP1;P1;durP2;ratioP2;P2;SDS_P1;SDS_P2;PMS_P1;PMS_P2;Temp;Humidity;BMP_temperature;BMP_pressure;BME280_temperature;BME280_humidity;BME280_pressure;Samples;Min_cycle;Max_cycle;Signal;HPM_P1;HPM_P2
2022/06/03 00:00:10;;;;;;;12.20;6.95;;;;;;;20.57;64.64;95268.91;5087776;23;20042;-82
2022/06/03 00:03:16;;;;;;;16.38;6.13;;;;;;;20.59;64.91;95270.19;5025797;28;20113;-82
2022/06/03 00:06:12;;;;;;;16.38;5.85;;;;;;;20.59;64.93;95272.84;5037635;23;20039;-82
2022/06/03 00:08:54;;;;;;;20.00;6.90;;;;;;;20.52;64.71;95258.41;5012905;28;20053;-82
2022/06/03 00:11:19;;;;;;;12.57;6.63;;;;;;;20.54;64.99;95264.19;5005934;28;20489;-82
2022/06/03 00:13:59;;;;;;;19.63;6.07;;;;;;;20.53;64.93;95265.25;5028398;28;20042;-82
2022/06/03 00:16:46;;;;;;;17.88;6.68;;;;;;;20.50;64.93;95261.34;5004988;28;20105;-82
2022/06/03 00:19:41;;;;;;;19.08;7.20;;;;;;;20.49;65.06;95259.75;5027479;23;20023;-82
2022/06/03 00:22:16;;;;;;;14.02;6.93;;;;;;;20.44;65.28;95261.66;5025652;28;20084;-81
2022/06/03 00:24:59;;;;;;;19.77;6.97;;;;;;;20.43;65.41;95260.88;5026689;28;20125;-82
2022/06/03 00:27:37;;;;;;;18.02;7.68;;;;;;;20.39;65.38;95260.63;5023929;28;20040;-83
2022/06/03 00:30:39;;;;;;;32.30;7.95;;;;;;;20.34;65.63;95260.69;5024942;28;20037;-83
2022/06/03 00:33:05;;;;;;;13.93;7.38;;;;;;;20.29;65.50;95260.75;5025048;28;20042;-82
2022/06/03 00:35:33;;;;;;;15.13;7.38;;;;;;;20.24;65.53;95262.66;5032549;28;20099;-82
2022/06/03 00:38:13;;;;;;;34.25;7.55;;;;;;;20.18;65.75;95266.44;5032212;28;20083;-82
2022/06/03 00:41:06;;;;;;;17.05;6.68;;;;;;;20.19;66.00;95273.28;5022703;28;20080;-81
2022/06/03 00:43:56;;;;;;;18.30;6.15;;;;;;;20.16;65.85;95264.06;5022955;28;20037;-82
2022/06/03 00:46:36;;;;;;;26.05;6.38;;;;;;;20.13;66.08;95267.25;5025311;28;20044;-82
2022/06/03 00:49:24;;;;;;;13.10;6.50;;;;;;;20.09;66.09;95268.88;5111488;23;20045;-82
2022/06/03 00:52:29;;;;;;;15.23;6.05;;;;;;;20.04;66.17;95261.03;5169365;27;20190;-82
2022/06/03 00:55:32;;;;;;;13.43;5.82;;;;;;;20.03;66.30;95267.38;5141850;27;20031;-82
2022/06/03 00:58:03;;;;;;;17.23;6.10;;;;;;;19.97;66.20;95263.97;5142176;27;20031;-83
2022/06/03 01:00:35;;;;;;;16.88;6.18;;;;;;;19.94;66.46;95263.75;5137801;27;20037;-82
2022/06/03 01:03:24;;;;;;;22.90;6.93;;;;;;;19.91;66.49;95256.41;5118309;22;20533;-82
2022/06/03 01:06:27;;;;;;;14.07;6.20;;;;;;;19.87;66.58;95258.03;5079823;28;20036;-82
2022/06/03 01:09:14;;;;;;;13.98;5.50;;;;;;;19.81;66.88;95253.84;5080794;28;20046;-82
2022/06/03 01:11:47;;;;;;;11.15;6.05;;;;;;;19.77;66.92;95257.06;5073796;28;20036;-82
2022/06/03 01:14:13;;;;;;;12.55;5.93;;;;;;;19.75;66.97;95261.03;5176203;22;20082;-80
2022/06/03 01:17:16;;;;;;;19.55;6.07;;;;;;;19.67;67.12;95249.22;5110836;28;20013;-82
2022/06/03 01:19:51;;;;;;;16.48;5.88;;;;;;;19.62;67.00;95256.41;5093046;28;20119;-84
2022/06/03 01:22:41;;;;;;;20.10;5.93;;;;;;;19.57;67.17;95253.81;5058806;28;20553;-84
2022/06/03 01:25:24;;;;;;;16.35;6.45;;;;;;;19.53;67.40;95245.66;5076311;28;20036;-83
2022/06/03 01:28:20;;;;;;;16.27;5.70;;;;;;;19.53;67.59;95248.28;5086297;28;20036;-82
2022/06/03 01:31:04;;;;;;;19.38;5.57;;;;;;;19.50;67.62;95248.81;5088735;28;20040;-82
2022/06/03 01:33:47;;;;;;;12.18;5.97;;;;;;;19.50;67.47;95243.53;5087180;28;20016;-81
2022/06/03 01:36:41;;;;;;;12.88;5.60;;;;;;;19.41;68.02;95245.22;5051593;28;20115;-81
2022/06/03 01:39:28;;;;;;;8.43;5.35;;;;;;;19.42;67.83;95247.56;5086048;28;20032;-81
2022/06/03 01:42:15;;;;;;;10.90;6.00;;;;;;;19.40;67.89;95251.56;5070674;28;20036;-82
2022/06/03 01:45:15;;;;;;;16.02;5.80;;;;;;;19.37;68.32;95250.25;5088102;28;20028;-82
2022/06/03 01:47:58;;;;;;;12.57;5.57;;;;;;;19.34;68.29;95261.34;5086782;28;20036;-84
2022/06/03 01:53:24;;;;;;;11.85;5.60;;;;;;;19.31;68.73;95258.47;5134884;22;20472;-81
2022/06/03 02:03:17;;;;;;;14.90;6.22;;;;;;;19.33;68.79;95261.63;5098632;28;20058;-82
2022/06/03 02:05:59;;;;;;;24.35;6.05;;;;;;;19.30;68.79;95264.81;5138665;22;20044;-84
2022/06/03 02:08:40;;;;;;;18.55;6.40;;;;;;;19.31;68.71;95266.38;5111302;28;20032;-83
2022/06/03 02:11:08;;;;;;;16.08;6.40;;;;;;;19.32;68.50;95262.69;5133015;22;20063;-81
2022/06/03 02:14:03;;;;;;;9.38;6.05;;;;;;;19.27;68.66;95260.09;5133935;28;20064;-82
2022/06/03 02:16:47;;;;;;;14.23;5.53;;;;;;;19.26;68.97;95269.06;5114789;28;20046;-82
2022/06/03 02:22:07;;;;;;;20.42;5.70;;;;;;;19.29;68.84;95276.41;5406152;22;20089;-83
2022/06/03 02:24:54;;;;;;;21.67;6.32;;;;;;;19.28;68.60;95269.56;5085835;28;20059;-81
2022/06/03 02:27:56;;;;;;;23.23;6.50;;;;;;;19.25;68.63;95268.28;5120985;22;20045;-82
2022/06/03 02:30:43;;;;;;;;;;;;;;;19.25;68.57;95276.19;5051175;28;20041;-82
2022/06/03 02:33:18;;;;;;;18.15;5.85;;;;;;;19.15;68.64;95278.88;5924485;22;19983;-83
2022/06/03 02:35:46;;;;;;;26.08;6.53;;;;;;;19.11;68.95;95276.00;5041487;28;20098;-83
2022/06/03 02:38:32;;;;;;;21.13;7.47;;;;;;;19.09;68.95;95275.50;5056798;28;20032;-83
2022/06/03 02:41:42;;;;;;;26.27;7.35;;;;;;;19.05;68.99;95278.97;5039986;28;20036;-83
2022/06/03 02:44:08;;;;;;;29.55;6.97;;;;;;;19.04;69.02;95282.66;4941564;29;20040;-82
2022/06/03 02:46:33;;;;;;;24.67;6.82;;;;;;;19.02;68.83;95282.91;4949484;29;20661;-82
2022/06/03 02:49:29;;;;;;;19.38;6.45;;;;;;;19.03;68.70;95281.84;4955642;29;20499;-82
2022/06/03 02:52:50;;;;;;;25.17;6.25;;;;;;;19.00;68.42;95287.66;4988270;28;20085;-83
2022/06/03 02:55:44;;;;;;;23.83;6.13;;;;;;;18.96;68.86;95288.50;5037477;28;20529;-82
2022/06/03 03:01:00;;;;;;;36.78;7.07;;;;;;;18.93;68.62;95292.47;5766473;22;20230;-81
2022/06/03 03:03:41;;;;;;;31.50;7.97;;;;;;;18.96;68.71;95291.91;5019969;28;20061;-84
2022/06/03 03:06:40;;;;;;;36.95;8.68;;;;;;;19.01;68.47;95299.00;5035453;28;20478;-83
2022/06/03 03:09:24;;;;;;;37.50;8.82;;;;;;;19.06;68.03;95291.09;5018354;28;20044;-83
2022/06/03 03:12:33;;;;;;;41.08;8.57;;;;;;;19.07;68.14;95298.72;5145071;22;20196;-82
2022/06/03 03:15:22;;;;;;;50.28;10.13;;;;;;;19.10;67.99;95292.09;5059559;28;20044;-83
2022/06/03 03:20:38;;;;;;;37.70;11.00;;;;;;;19.23;67.65;95288.06;5111355;22;20479;-83
2022/06/03 03:23:08;;;;;;;38.85;11.02;;;;;;;19.31;67.14;95288.25;5056077;28;20037;-83
2022/06/03 03:25:52;;;;;;;46.80;11.18;;;;;;;19.35;67.19;95299.84;5039029;28;20613;-83
2022/06/03 03:28:37;;;;;;;25.95;8.52;;;;;;;19.46;66.78;95300.56;5021994;28;20466;-82
2022/06/03 03:31:14;;;;;;;37.75;9.15;;;;;;;19.50;66.72;95301.56;5022069;28;20068;-82
2022/06/03 03:33:58;;;;;;;25.33;8.98;;;;;;;19.60;66.34;95298.91;5039579;28;20039;-82
2022/06/03 03:36:41;;;;;;;30.38;10.65;;;;;;;19.70;65.84;95296.19;5039566;28;20041;-82
2022/06/03 03:39:07;;;;;;;31.55;11.77;;;;;;;19.78;65.80;95297.44;5053793;28;20679;-81
2022/06/03 03:41:53;;;;;;;40.20;10.98;;;;;;;19.89;65.47;95309.47;5055289;28;20021;-82
2022/06/03 03:44:52;;;;;;;38.40;11.98;;;;;;;20.05;65.23;95304.84;5036750;28;20041;-83
2022/06/03 03:47:39;;;;;;;42.58;12.60;;;;;;;20.21;64.90;95310.75;5063697;23;20120;-82
2022/06/03 03:50:33;;;;;;;62.03;13.63;;;;;;;20.32;64.55;95314.84;5055888;28;20041;-83
2022/06/03 03:53:02;;;;;;;59.38;18.58;;;;;;;20.52;64.11;95313.91;5034360;28;20069;-84
2022/06/03 03:55:52;;;;;;;69.90;20.40;;;;;;;20.71;63.61;95312.06;5035570;28;20068;-83
2022/06/03 03:58:42;;;;;;;69.45;24.38;;;;;;;20.88;63.08;95320.31;5035486;28;20034;-83
2022/06/03 04:01:26;;;;;;;89.72;48.63;;;;;;;21.46;62.03;95322.69;5049615;28;20120;-83
2022/06/03 04:04:00;;;;;;;53.60;25.60;;;;;;;23.14;56.81;95322.38;5035197;28;20712;-83
2022/06/03 04:18:00;;;;;;;17.90;7.18;;;;;;;31.92;35.51;95311.97;5053305;28;20047;-84
2022/06/03 04:23:54;;;;;;;23.65;6.72;;;;;;;34.46;31.11;95304.38;5052741;28;20048;-83
2022/06/03 04:26:38;;;;;;;28.02;7.10;;;;;;;35.64;29.04;95303.25;5018179;28;20107;-84
2022/06/03 04:29:34;;;;;;;29.80;7.50;;;;;;;36.59;27.75;95295.72;5053954;28;20044;-84
2022/06/03 04:32:38;;;;;;;35.03;8.32;;;;;;;37.64;25.96;95297.88;5052202;28;20037;-83
2022/06/03 04:45:45;;;;;;;;;;;;;;;;;;;;;
2022/06/03 04:48:49;;;;;;;16.02;4.28;;;;;;;42.19;20.17;95327.56;5050177;28;20033;-84
2022/06/03 04:52:30;;;;;;;34.70;4.47;;;;;;;42.93;19.04;95321.56;5108219;22;20022;-84
2022/06/03 04:59:22;;;;;;;;;;;;;;;;;;;;;
2022/06/03 05:02:41;;;;;;;14.77;3.70;;;;;;;45.08;16.88;95338.84;4983629;28;20102;-84
2022/06/03 05:12:24;;;;;;;6.72;3.45;;;;;;;46.52;15.68;95352.50;4947154;29;20103;-84
2022/06/03 05:15:00;;;;;;;26.52;3.92;;;;;;;47.21;15.06;95341.06;5021219;28;20113;-83
2022/06/03 05:17:44;;;;;;;19.85;4.00;;;;;;;47.88;14.43;95342.13;5053622;28;20029;-84
2022/06/03 05:20:21;;;;;;;19.17;4.85;;;;;;;48.47;14.40;95339.78;5036814;28;20028;-84
2022/06/03 05:22:57;;;;;;;11.85;3.38;;;;;;;49.07;13.67;95339.63;5052300;28;20033;-81
2022/06/03 05:26:04;;;;;;;21.02;3.45;;;;;;;49.59;13.17;95334.63;5036350;28;20033;-84
2022/06/03 05:28:53;;;;;;;24.48;3.03;;;;;;;50.19;13.00;95346.50;5068843;28;20033;-80
2022/06/03 05:31:57;;;;;;;13.95;3.35;;;;;;;50.28;12.24;95346.38;5044618;28;20031;-83
2022/06/03 05:34:44;;;;;;;12.52;2.90;;;;;;;50.74;11.95;95354.91;5035517;28;20041;-83
2022/06/03 05:37:31;;;;;;;9.25;2.90;;;;;;;51.20;12.16;95354.25;5055308;28;20581;-83
2022/06/03 05:40:21;;;;;;;17.50;4.05;;;;;;;51.41;11.86;95353.00;5057491;28;20104;-83
2022/06/03 05:43:05;;;;;;;;;;;;;;;51.43;11.60;95361.63;5037153;28;20044;-84
2022/06/03 05:46:02;;;;;;;11.88;3.60;;;;;;;51.75;11.80;95364.47;5055111;28;19917;-82
2022/06/03 05:48:48;;;;;;;9.40;3.20;;;;;;;51.94;11.30;95346.25;5055267;28;20033;-83
2022/06/03 05:51:14;;;;;;;16.00;2.78;;;;;;;52.16;10.92;95343.69;5052798;28;20036;-81
2022/06/03 05:53:55;;;;;;;6.85;2.72;;;;;;;52.26;10.97;95340.72;5053873;28;20028;-81
2022/06/03 05:56:33;;;;;;;10.13;2.97;;;;;;;52.27;10.98;95336.69;5036326;28;20027;-81
2022/06/03 05:59:01;;;;;;;13.73;3.05;;;;;;;52.38;11.31;95342.34;5036550;28;20611;-81
2022/06/03 06:01:51;;;;;;;10.38;3.08;;;;;;;52.46;11.21;95337.84;5053298;28;20433;-81
2022/06/03 06:04:35;;;;;;;12.50;2.85;;;;;;;52.73;10.79;95323.41;5051762;28;20033;-80
2022/06/03 06:07:10;;;;;;;15.07;3.10;;;;;;;52.58;10.84;95317.25;5037170;28;20045;-81
2022/06/03 06:09:41;;;;;;;10.13;2.80;;;;;;;52.79;10.78;95315.84;5026883;28;20040;-81
2022/06/03 06:12:40;;;;;;;7.68;3.90;;;;;;;52.69;10.66;95320.06;5057268;28;20092;-81
2022/06/03 06:15:37;;;;;;;9.27;3.13;;;;;;;52.79;10.61;95321.41;5055683;28;20044;-82
2022/06/03 06:18:48;;;;;;;10.70;2.92;;;;;;;52.61;11.54;95310.69;5104188;23;20048;-81
2022/06/03 06:21:47;;;;;;;15.23;3.70;;;;;;;52.44;11.40;95307.06;5049821;28;20065;-81
2022/06/03 06:24:35;;;;;;;12.97;3.43;;;;;;;51.61;11.55;95305.09;5045531;28;20033;-85
2022/06/03 06:27:09;;;;;;;14.57;3.28;;;;;;;51.01;12.64;95310.19;5041750;28;20044;-84
2022/06/03 06:30:06;;;;;;;9.63;2.78;;;;;;;50.18;13.29;95312.53;5048453;28;20405;-83
2022/06/03 06:32:36;;;;;;;13.93;3.28;;;;;;;49.57;13.47;95304.69;5050097;28;20020;-84
2022/06/03 06:35:30;;;;;;;28.63;3.42;;;;;;;48.98;13.76;95306.53;5048348;28;20478;-81
2022/06/03 06:38:04;;;;;;;20.85;4.43;;;;;;;48.22;14.01;95310.59;5044802;28;20029;-85
2022/06/03 06:40:47;;;;;;;20.20;3.75;;;;;;;47.92;14.53;95296.63;5044232;28;20085;-85
2022/06/03 06:43:31;;;;;;;23.08;4.70;;;;;;;47.28;15.20;95293.16;5043710;28;20041;-84
2022/06/03 06:46:21;;;;;;;18.17;3.55;;;;;;;47.51;14.83;95289.78;5043529;28;20640;-81
2022/06/03 06:48:49;;;;;;;11.95;3.85;;;;;;;46.83;15.17;95292.66;5048369;28;20029;-80
2022/06/03 06:52:03;;;;;;;9.55;3.28;;;;;;;46.28;15.88;95295.25;5048169;28;20105;-80
2022/06/03 06:54:34;;;;;;;19.73;3.08;;;;;;;45.85;16.75;95295.31;5037492;28;20049;-80
2022/06/03 06:57:09;;;;;;;9.73;3.35;;;;;;;45.51;16.47;95301.66;5044318;28;20421;-80
2022/06/03 07:00:00;;;;;;;11.90;2.92;;;;;;;44.98;16.85;95291.31;5044375;28;20104;-80
2022/06/03 07:02:31;;;;;;;11.13;3.20;;;;;;;44.35;17.99;95281.19;5043477;28;20048;-80
2022/06/03 07:05:19;;;;;;;10.95;3.13;;;;;;;43.58;18.36;95287.78;5048524;28;20037;-80
2022/06/03 07:07:51;;;;;;;12.43;3.63;;;;;;;43.06;18.71;95286.81;5047464;28;20042;-81
2022/06/03 07:10:37;;;;;;;8.70;3.80;;;;;;;42.51;19.73;95282.34;5048615;28;20116;-80
2022/06/03 07:13:12;;;;;;;10.60;3.80;;;;;;;42.08;20.06;95285.25;5073060;28;20048;-80
2022/06/03 07:15:53;;;;;;;7.93;3.20;;;;;;;41.47;20.21;95286.47;5055897;28;20053;-81
2022/06/03 07:21:33;;;;;;;6.95;2.97;;;;;;;40.35;21.84;95280.59;5059032;28;20035;-80
2022/06/03 07:24:14;;;;;;;9.05;3.20;;;;;;;39.90;22.42;95278.13;5056974;28;20033;-80
2022/06/03 07:26:41;;;;;;;6.53;2.85;;;;;;;39.46;22.42;95281.00;5016942;28;20033;-80
2022/06/03 07:29:41;;;;;;;16.58;3.15;;;;;;;39.03;24.03;95281.41;5031477;28;20029;-80
2022/06/03 07:32:21;;;;;;;10.50;3.15;;;;;;;38.49;24.39;95288.50;5034077;28;20087;-80
2022/06/03 07:34:59;;;;;;;15.77;3.60;;;;;;;37.94;25.32;95279.16;5047145;28;20056;-80
2022/06/03 07:37:47;;;;;;;14.02;3.75;;;;;;;37.56;25.77;95280.84;5034768;28;20051;-79
2022/06/03 07:40:23;;;;;;;12.63;3.55;;;;;;;37.25;24.85;95283.25;5066907;28;20033;-79
2022/06/03 07:42:48;;;;;;;25.83;4.10;;;;;;;36.93;25.74;95286.03;5046213;28;20047;-79
2022/06/03 07:45:23;;;;;;;9.32;3.28;;;;;;;36.72;26.60;95299.59;5046308;28;20112;-79
2022/06/03 07:47:49;;;;;;;6.72;3.10;;;;;;;36.19;25.84;95294.91;5072700;28;20115;-79
2022/06/03 07:50:16;;;;;;;11.57;3.53;;;;;;;35.65;27.70;95296.69;5031487;28;20037;-79
2022/06/03 07:52:49;;;;;;;10.50;3.22;;;;;;;35.39;27.51;95297.72;5014039;28;20029;-80
2022/06/03 07:55:19;;;;;;;12.55;3.40;;;;;;;35.12;28.18;95304.50;5047792;28;20033;-82
2022/06/03 07:58:09;;;;;;;9.07;3.58;;;;;;;34.93;28.27;95302.84;5035709;28;20093;-81
2022/06/03 08:00:35;;;;;;;16.50;3.30;;;;;;;34.79;28.78;95302.72;5044978;28;20053;-79
2022/06/03 08:03:22;;;;;;;18.25;4.63;;;;;;;34.56;28.54;95302.94;5013908;28;20082;-79
2022/06/03 08:05:56;;;;;;;11.32;4.65;;;;;;;34.39;29.67;95307.03;5030731;28;20025;-79
2022/06/03 08:11:16;;;;;;;10.32;3.42;;;;;;;34.02;29.31;95312.44;5033394;28;20083;-79
2022/06/03 08:13:42;;;;;;;14.55;4.25;;;;;;;33.56;30.58;95309.19;5045461;28;20097;-80
2022/06/03 08:16:25;;;;;;;14.20;4.32;;;;;;;33.20;31.34;95311.41;5046181;28;20071;-80
2022/06/03 08:18:50;;;;;;;12.38;4.35;;;;;;;33.17;31.91;95314.81;5031729;28;20350;-79
2022/06/03 08:21:20;;;;;;;15.02;4.72;;;;;;;32.99;31.66;95314.56;5045010;28;20025;-79
2022/06/03 08:23:46;;;;;;;16.55;4.00;;;;;;;32.86;32.22;95315.13;5042283;28;20069;-79
2022/06/03 08:26:13;;;;;;;14.45;4.97;;;;;;;32.91;33.16;95320.22;5026548;28;20045;-78
2022/06/03 08:28:42;;;;;;;16.90;4.32;;;;;;;32.69;32.41;95322.53;5041372;28;20038;-79
2022/06/03 08:31:07;;;;;;;17.95;4.55;;;;;;;32.42;32.96;95318.25;5043196;28;20041;-79
2022/06/03 08:33:40;;;;;;;16.33;4.10;;;;;;;32.05;34.74;95326.00;5042258;28;20064;-80
2022/06/03 08:36:06;;;;;;;9.55;4.50;;;;;;;31.03;35.62;95321.59;5044102;28;20041;-80
2022/06/03 08:39:06;;;;;;;12.27;4.03;;;;;;;30.80;36.51;95328.75;5045162;28;20408;-80
2022/06/03 08:41:47;;;;;;;12.45;4.38;;;;;;;30.82;36.43;95323.03;5041859;28;20072;-79
2022/06/03 08:44:18;;;;;;;8.02;4.22;;;;;;;30.96;37.28;95315.31;5045530;28;20056;-80
2022/06/03 08:47:08;;;;;;;15.40;3.78;;;;;;;30.98;35.55;95313.81;5043470;28;20503;-79
2022/06/03 08:49:44;;;;;;;10.20;4.10;;;;;;;30.83;35.42;95328.06;5046319;28;20521;-80
2022/06/03 08:52:10;;;;;;;15.02;4.95;;;;;;;30.82;35.07;95312.28;5044288;28;20090;-80
2022/06/03 08:54:41;;;;;;;15.73;4.90;;;;;;;31.07;35.37;95319.75;5037957;28;20029;-79
2022/06/03 08:57:30;;;;;;;9.63;5.40;;;;;;;31.38;34.89;95331.59;5040308;28;20036;-79
2022/06/03 09:00:00;;;;;;;11.38;4.45;;;;;;;31.43;34.49;95325.97;5025647;28;20520;-80
2022/06/03 09:02:31;;;;;;;8.40;4.32;;;;;;;31.37;34.22;95319.28;5038958;28;20025;-80
2022/06/03 09:04:59;;;;;;;;;;;;;;;31.49;34.97;95329.13;5007141;28;20033;-80
2022/06/03 09:07:41;;;;;;;12.45;5.20;;;;;;;31.70;34.70;95326.09;5041748;28;19924;-80
2022/06/03 09:10:12;;;;;;;16.92;4.80;;;;;;;31.97;34.44;95333.19;5033951;28;20029;-80
2022/06/03 09:12:52;;;;;;;8.65;4.15;;;;;;;31.62;33.76;95330.56;5042420;28;20029;-79
2022/06/03 09:15:22;;;;;;;9.13;4.70;;;;;;;31.48;35.17;95325.66;5043655;28;20580;-79
2022/06/03 09:17:52;;;;;;;6.18;4.05;;;;;;;31.10;35.26;95330.97;5027903;28;20032;-79
2022/06/03 09:20:32;;;;;;;13.85;4.18;;;;;;;30.30;36.64;95343.63;5042928;28;20032;-79
2022/06/03 09:23:18;;;;;;;11.23;4.35;;;;;;;29.41;38.03;95330.41;5041856;28;20017;-80
2022/06/03 09:25:48;;;;;;;15.65;4.18;;;;;;;28.98;39.68;95337.19;5050648;28;20041;-79
2022/06/03 09:28:16;;;;;;;13.98;5.20;;;;;;;28.72;40.89;95335.91;5048345;28;20049;-79
2022/06/03 09:30:41;;;;;;;14.38;4.80;;;;;;;27.87;41.65;95350.66;5047798;28;20033;-81
2022/06/03 09:33:08;;;;;;;9.25;4.03;;;;;;;27.41;40.67;95347.06;5047655;28;20041;-78
2022/06/03 09:35:36;;;;;;;11.10;3.90;;;;;;;27.48;39.80;95349.97;5051393;28;20063;-78
2022/06/03 09:38:02;;;;;;;5.07;3.22;;;;;;;27.29;39.44;95341.66;5040904;28;20381;-79
2022/06/03 09:40:31;;;;;;;9.80;3.55;;;;;;;27.13;38.64;95344.09;5057452;28;20104;-81
2022/06/03 09:43:14;;;;;;;8.43;3.20;;;;;;;27.06;38.73;95343.06;5048163;28;20125;-80
2022/06/03 09:45:40;;;;;;;6.00;3.38;;;;;;;27.06;38.87;95338.50;5049325;28;20029;-82
2022/06/03 09:48:06;;;;;;;12.85;3.97;;;;;;;27.12;38.79;95341.75;5034086;28;20029;-82
2022/06/03 09:50:32;;;;;;;10.75;3.63;;;;;;;27.34;38.55;95341.47;5034370;28;20033;-79
2022/06/03 09:53:08;;;;;;;11.75;3.67;;;;;;;27.02;38.28;95342.16;5066297;28;20567;-80
2022/06/03 09:55:39;;;;;;;13.50;3.85;;;;;;;26.74;38.24;95342.56;5054892;28;20025;-82
2022/06/03 09:58:06;;;;;;;8.27;3.20;;;;;;;26.98;38.09;95346.53;5050998;28;20047;-84
2022/06/03 10:00:46;;;;;;;13.23;3.45;;;;;;;26.93;37.98;95340.28;5030794;28;20464;-78
2022/06/03 10:03:12;;;;;;;6.40;3.40;;;;;;;26.96;37.37;95343.41;5048013;28;20083;-79
2022/06/03 10:05:38;;;;;;;5.28;3.45;;;;;;;27.12;37.70;95339.88;5030101;28;20026;-81
2022/06/03 10:08:06;;;;;;;6.88;3.33;;;;;;;27.36;37.82;95341.94;5033885;28;20040;-82
2022/06/03 10:13:23;;;;;;;21.25;4.50;;;;;;;27.70;37.34;95342.78;5006590;28;20171;-80
2022/06/03 10:15:56;;;;;;;8.73;4.28;;;;;;;27.63;37.41;95342.50;5024164;28;20666;-80
2022/06/03 10:18:42;;;;;;;15.45;4.28;;;;;;;27.85;37.76;95339.53;5040850;28;20033;-80
2022/06/03 10:21:07;;;;;;;20.13;4.47;;;;;;;28.17;38.19;95342.50;5037169;28;20038;-83
2022/06/03 10:23:43;;;;;;;9.95;4.13;;;;;;;28.45;37.97;95343.47;5045588;28;20037;-80
2022/06/03 10:26:08;;;;;;;16.42;4.65;;;;;;;28.70;38.49;95339.72;5012000;28;20102;-79
2022/06/03 10:28:35;;;;;;;13.38;4.15;;;;;;;28.75;37.58;95337.94;5042540;28;20721;-79
2022/06/03 10:31:04;;;;;;;10.00;4.47;;;;;;;28.64;38.22;95334.94;5030136;28;20037;-78
2022/06/03 10:33:30;;;;;;;16.42;4.72;;;;;;;28.66;37.83;95328.13;5038563;28;20048;-79
2022/06/03 10:35:57;;;;;;;17.52;4.68;;;;;;;28.53;38.28;95331.91;5048769;28;20029;-77
2022/06/03 10:38:22;;;;;;;16.58;4.38;;;;;;;28.64;37.47;95335.72;5023087;28;20026;-80
2022/06/03 10:40:49;;;;;;;11.13;4.88;;;;;;;28.76;36.96;95326.09;5026394;28;20220;-80
2022/06/03 10:43:23;;;;;;;9.52;4.20;;;;;;;28.96;36.78;95335.94;5041738;28;20036;-80
2022/06/03 10:45:48;;;;;;;14.35;7.05;;;;;;;29.13;36.63;95334.94;5045299;28;20071;-79
2022/06/03 10:48:21;;;;;;;7.60;3.97;;;;;;;29.24;37.16;95336.03;5010344;28;20409;-79
2022/06/03 10:50:47;;;;;;;9.75;4.28;;;;;;;28.84;37.01;95328.69;5041963;28;20059;-80
2022/06/03 11:01:52;;;;;;;8.40;4.50;;;;;;;28.39;37.98;95304.69;5043919;28;20052;-80
2022/06/03 11:04:29;;;;;;;8.57;4.05;;;;;;;28.46;38.51;95307.56;5028463;28;20110;-80
2022/06/03 11:09:30;;;;;;;12.98;5.10;;;;;;;28.25;37.76;95296.16;5417589;22;20485;-79
2022/06/03 11:11:59;;;;;;;7.80;4.28;;;;;;;28.25;37.87;95301.50;5057976;28;20029;-79
2022/06/03 11:14:41;;;;;;;16.67;3.83;;;;;;;28.27;37.42;95288.63;5057449;28;20381;-79
2022/06/03 11:17:17;;;;;;;8.93;4.07;;;;;;;28.22;37.15;95296.84;5022928;28;20405;-79
2022/06/03 11:19:45;;;;;;;6.50;3.47;;;;;;;28.31;36.97;95289.50;5056800;28;20492;-79
2022/06/03 11:22:21;;;;;;;6.05;3.28;;;;;;;28.30;34.62;95290.63;5063461;23;20045;-80
2022/06/03 11:24:51;;;;;;;8.60;3.92;;;;;;;28.11;35.35;95288.44;5055312;28;20090;-80
2022/06/03 11:27:17;;;;;;;6.03;4.80;;;;;;;28.26;35.98;95273.69;5066053;22;20044;-80
2022/06/03 11:29:43;;;;;;;10.10;4.10;;;;;;;28.24;36.13;95275.88;5043973;28;20088;-79
2022/06/03 11:32:09;;;;;;;9.68;4.20;;;;;;;28.21;36.19;95273.88;5053850;23;20505;-80
2022/06/03 11:34:35;;;;;;;10.85;4.57;;;;;;;28.23;36.58;95275.09;5053002;28;20516;-80
2022/06/03 11:37:24;;;;;;;6.63;3.75;;;;;;;28.26;36.26;95266.44;5056746;22;20040;-80
2022/06/03 11:39:53;;;;;;;11.65;4.32;;;;;;;28.14;36.39;95274.41;5051352;28;20392;-80
2022/06/03 11:42:31;;;;;;;10.02;4.05;;;;;;;27.96;37.22;95273.81;5035711;28;20047;-80
2022/06/03 11:45:19;;;;;;;8.52;3.38;;;;;;;28.01;36.93;95260.25;5009175;28;20040;-80
2022/06/03 11:47:56;;;;;;;10.13;4.13;;;;;;;28.09;36.49;95267.38;5024869;28;20553;-80
2022/06/03 11:50:23;;;;;;;12.73;3.55;;;;;;;28.03;35.11;95255.34;5031814;28;20044;-80
2022/06/03 11:52:50;;;;;;;6.25;3.35;;;;;;;28.17;35.00;95246.25;5015113;28;20053;-80
2022/06/03 11:55:17;;;;;;;13.80;6.18;;;;;;;28.20;35.42;95257.06;5022694;28;20102;-81
2022/06/03 11:57:48;;;;;;;15.93;4.65;;;;;;;28.32;35.04;95261.66;5024446;28;20033;-81
2022/06/03 12:00:16;;;;;;;7.85;3.40;;;;;;;28.40;35.52;95260.75;5006501;28;20037;-80
2022/06/03 12:02:58;;;;;;;5.15;3.20;;;;;;;28.34;34.79;95251.41;5023093;28;20039;-80
2022/06/03 12:05:29;;;;;;;10.65;3.72;;;;;;;28.55;34.52;95252.06;5024401;28;20041;-80
2022/06/03 12:08:05;;;;;;;4.55;2.97;;;;;;;28.75;32.92;95254.94;5002204;28;20046;-80
2022/06/03 12:11:01;;;;;;;10.30;3.00;;;;;;;28.72;30.70;95250.28;5033145;28;20527;-80
2022/06/03 12:13:31;;;;;;;11.35;5.00;;;;;;;28.63;32.25;95242.34;5007675;28;20039;-80
2022/06/03 12:16:03;;;;;;;10.35;3.80;;;;;;;28.72;32.33;95244.94;5007615;28;20104;-80
2022/06/03 12:18:31;;;;;;;6.60;3.08;;;;;;;28.46;33.27;95247.94;5023914;28;20037;-80
2022/06/03 12:20:58;;;;;;;3.40;2.80;;;;;;;28.39;33.27;95246.63;5032941;28;20041;-80
2022/06/03 12:23:23;;;;;;;6.72;2.88;;;;;;;28.22;33.00;95251.38;5041147;28;20417;-81
2022/06/03 12:25:48;;;;;;;13.90;3.20;;;;;;;28.03;33.22;95252.69;5033690;28;20033;-80
2022/06/03 12:28:24;;;;;;;5.85;2.97;;;;;;;28.08;32.48;95244.44;5022856;28;20044;-79
2022/06/03 12:33:25;;;;;;;5.22;2.78;;;;;;;28.17;31.88;95246.25;5084986;22;20048;-80
2022/06/03 12:35:52;;;;;;;3.05;2.47;;;;;;;28.34;31.57;95249.53;5045478;28;20028;-80
2022/06/03 12:38:20;;;;;;;7.40;2.80;;;;;;;28.45;31.87;95257.84;5056442;28;20041;-80
2022/06/03 12:40:46;;;;;;;9.55;2.78;;;;;;;28.57;32.43;95249.84;5053678;28;20064;-81
2022/06/03 12:43:22;;;;;;;6.28;3.13;;;;;;;28.67;32.31;95249.41;5054291;28;20423;-80
2022/06/03 12:46:00;;;;;;;5.85;2.92;;;;;;;28.62;32.37;95257.63;5051995;28;20068;-80
2022/06/03 12:48:45;;;;;;;11.60;5.93;;;;;;;28.67;34.16;95253.97;5034663;28;20036;-81
2022/06/03 12:51:10;;;;;;;11.15;4.18;;;;;;;28.84;33.82;95240.34;5052968;28;20059;-80
2022/06/03 12:53:41;;;;;;;12.60;3.53;;;;;;;28.82;34.51;95244.47;5053629;28;20461;-80
2022/06/03 12:56:35;;;;;;;13.15;3.85;;;;;;;28.42;36.46;95237.13;5002176;28;20040;-80
2022/06/03 12:59:22;;;;;;;7.28;4.43;;;;;;;28.11;37.76;95237.66;5041168;28;20041;-81
2022/06/03 13:02:01;;;;;;;10.25;4.13;;;;;;;27.89;37.79;95246.88;5059620;28;20027;-81
2022/06/03 13:04:41;;;;;;;6.65;4.28;;;;;;;27.85;36.59;95259.34;5053811;28;20029;-81
2022/06/03 13:07:16;;;;;;;8.55;3.67;;;;;;;27.63;36.66;95260.47;5035982;28;20037;-81
2022/06/03 13:09:52;;;;;;;9.05;3.65;;;;;;;27.88;35.61;95261.34;5033638;28;20123;-77
2022/06/03 13:12:26;;;;;;;5.82;3.60;;;;;;;27.75;36.90;95259.75;5029565;28;20112;-79
2022/06/03 13:14:52;;;;;;;9.90;3.50;;;;;;;27.89;37.17;95257.56;5036623;28;20028;-78
2022/06/03 13:17:55;;;;;;;12.93;3.83;;;;;;;27.97;37.20;95258.56;5018616;28;20033;-79
2022/06/03 13:20:41;;;;;;;10.50;4.43;;;;;;;27.83;37.69;95253.53;5048898;28;20029;-77
2022/06/03 13:23:42;;;;;;;10.85;4.22;;;;;;;28.06;37.96;95254.69;5031540;28;20068;-78
2022/06/03 13:26:27;;;;;;;7.80;4.13;;;;;;;28.23;38.39;95255.59;5018866;28;20053;-77
2022/06/03 13:29:01;;;;;;;10.90;4.43;;;;;;;28.44;37.85;95253.63;5051926;28;20059;-78
2022/06/03 13:31:41;;;;;;;12.00;4.00;;;;;;;28.28;38.37;95247.38;5036132;28;20515;-78
2022/06/03 13:36:37;;;;;;;13.68;4.45;;;;;;;28.43;39.01;95243.25;5052440;28;20045;-78
2022/06/03 13:39:23;;;;;;;10.73;4.75;;;;;;;28.37;39.78;95235.47;5023338;28;20021;-78
2022/06/03 13:44:46;;;;;;;11.80;5.20;;;;;;;28.08;41.48;95233.75;5046707;28;20118;-78
2022/06/03 13:47:24;;;;;;;12.38;4.82;;;;;;;27.91;42.32;95249.19;5068398;28;20024;-78